Time;durP1;ratioP1;P1;durP2;ratioP2;P2;SDS_P1;SDS_P2;PMS_P1;PMS_P2;Temp;Humidity;BMP_temperature;BMP_pressure;BME280_temperature;BME280_humidity;BME280_pressure;Samples;Min_cycle;Max_cycle;Signal;HPM_P1;HPM_P2
2023/03/21 08:46:55;;;;;;;1999.90;999.90;;;21.60;99.90;;;;;;5055977;27;20502;-73
2023/03/21 08:49:22;;;;;;;1999.90;999.90;;;21.10;99.90;;;;;;5032932;28;20131;-72
2023/03/21 08:51:50;;;;;;;1999.90;999.90;;;21.10;99.90;;;;;;5040620;28;20032;-71
2023/03/21 08:54:21;;;;;;;1999.90;999.90;;;21.10;99.90;;;;;;5050872;28;20025;-71
2023/03/21 08:56:49;;;;;;;1999.90;999.90;;;21.10;99.90;;;;;;5047327;28;20064;-70
2023/03/21 08:59:16;;;;;;;1999.90;999.90;;;21.10;99.90;;;;;;5049508;28;20029;-71
2023/03/21 09:01:44;;;;;;;1999.90;999.90;;;21.20;99.90;;;;;;5030480;28;20487;-72
2023/03/21 09:04:11;;;;;;;1999.90;999.90;;;21.20;99.90;;;;;;5043215;28;20029;-73
2023/03/21 09:06:47;;;;;;;1999.90;999.90;;;21.30;99.90;;;;;;5034757;28;20054;-74
2023/03/21 09:09:15;;;;;;;1999.90;999.90;;;21.30;99.90;;;;;;5044876;28;20041;-72
2023/03/21 09:11:43;;;;;;;1999.90;999.90;;;21.30;99.90;;;;;;5048518;28;20067;-73
2023/03/21 09:14:10;;;;;;;1999.90;999.90;;;21.20;99.90;;;;;;5051812;28;20026;-72
2023/03/21 09:16:38;;;;;;;1999.90;999.90;;;21.10;99.90;;;;;;5045221;28;20029;-71
2023/03/21 09:19:07;;;;;;;1999.90;999.90;;;21.00;99.90;;;;;;5044677;28;20029;-72
2023/03/21 09:21:35;;;;;;;1999.90;999.90;;;20.90;99.90;;;;;;5040139;28;20037;-72
2023/03/21 09:24:05;;;;;;;1999.90;999.90;;;20.80;99.90;;;;;;5042365;28;20112;-72
2023/03/21 09:26:32;;;;;;;1999.90;999.90;;;20.80;99.90;;;;;;5040714;28;20037;-71
2023/03/21 09:29:00;;;;;;;1999.90;999.90;;;20.70;99.90;;;;;;5045846;28;20064;-72
2023/03/21 09:31:27;;;;;;;1999.90;999.90;;;20.70;99.90;;;;;;5046550;28;20032;-71
2023/03/21 09:33:56;;;;;;;1999.90;999.90;;;20.70;99.90;;;;;;5040998;28;20029;-71
2023/03/21 09:36:26;;;;;;;1999.90;999.90;;;20.70;99.90;;;;;;5046804;28;20487;-70
2023/03/21 09:38:55;;;;;;;1999.90;999.90;;;20.60;99.90;;;;;;5048064;28;20452;-72
2023/03/21 09:41:44;;;;;;;1999.90;999.90;;;20.60;99.90;;;;;;5048053;28;20025;-72
2023/03/21 09:44:24;;;;;;;1999.90;999.90;;;20.70;99.90;;;;;;5045793;28;20048;-70
2023/03/21 09:47:01;;;;;;;1999.90;999.90;;;20.60;99.90;;;;;;5047696;28;20040;-69
2023/03/21 09:49:34;;;;;;;1999.90;999.90;;;20.60;99.90;;;;;;5048522;28;20028;-72
2023/03/21 09:52:16;;;;;;;1999.90;999.90;;;20.60;99.90;;;;;;5050780;28;20033;-69
2023/03/21 09:54:43;;;;;;;1999.90;999.90;;;20.60;99.90;;;;;;5052234;28;20036;-70
2023/03/21 09:57:51;;;;;;;1999.90;999.90;;;20.70;99.90;;;;;;5038974;28;20030;-70
2023/03/21 10:00:28;;;;;;;1999.90;999.90;;;20.70;99.90;;;;;;5035088;28;20045;-71
2023/03/21 10:03:00;;;;;;;1999.90;999.90;;;20.60;99.90;;;;;;5027697;28;20076;-71
2023/03/21 10:05:30;;;;;;;1999.90;999.90;;;20.70;99.90;;;;;;5023791;28;20459;-70
2023/03/21 10:08:03;;;;;;;1999.90;999.90;;;20.60;99.90;;;;;;5026146;28;20027;-71
2023/03/21 10:10:46;;;;;;;1999.90;999.90;;;20.60;99.90;;;;;;5026118;28;20432;-72
2023/03/21 10:13:31;;;;;;;1999.90;999.90;;;20.60;99.90;;;;;;5033423;28;20025;-72
2023/03/21 10:16:03;;;;;;;1999.90;999.90;;;20.60;99.90;;;;;;5032210;28;20104;-72
2023/03/21 10:18:32;;;;;;;1999.90;999.90;;;20.60;99.90;;;;;;5026926;28;20028;-73
2023/03/21 10:21:00;;;;;;;1999.90;999.90;;;20.60;99.90;;;;;;5038772;28;20498;-72
2023/03/21 10:23:29;;;;;;;1999.90;999.90;;;20.60;99.90;;;;;;5040938;28;20060;-72
2023/03/21 10:26:05;;;;;;;1999.90;999.90;;;20.60;99.90;;;;;;5031936;28;20391;-72
2023/03/21 10:28:37;;;;;;;1999.90;999.90;;;20.60;99.90;;;;;;5023795;28;20028;-72
2023/03/21 10:31:14;;;;;;;1999.90;999.90;;;20.60;99.90;;;;;;5020048;28;20028;-72
2023/03/21 10:33:46;;;;;;;1999.90;999.90;;;20.60;99.90;;;;;;5014498;28;20127;-70
2023/03/21 10:36:19;;;;;;;1999.90;999.90;;;20.60;99.90;;;;;;5021556;28;20047;-72
2023/03/21 10:39:11;;;;;;;1999.90;999.90;;;20.60;99.90;;;;;;5015263;28;20108;-71
2023/03/21 10:41:39;;;;;;;1999.90;999.90;;;20.60;99.90;;;;;;5016001;28;20022;-72
2023/03/21 10:44:16;;;;;;;1999.90;999.90;;;20.60;99.90;;;;;;5019714;28;20518;-72
2023/03/21 10:47:09;;;;;;;1999.90;999.90;;;20.60;99.90;;;;;;5024090;28;20503;-72
2023/03/21 10:49:38;;;;;;;1999.90;999.90;;;20.60;99.90;;;;;;5026330;28;20029;-71
2023/03/21 10:52:10;;;;;;;1999.90;999.90;;;20.60;99.90;;;;;;5032952;28;20463;-73
2023/03/21 10:54:37;;;;;;;1999.90;999.90;;;20.60;99.90;;;;;;5028839;28;20013;-72
2023/03/21 10:57:20;;;;;;;1999.90;999.90;;;20.60;99.90;;;;;;5024842;28;20084;-72
2023/03/21 10:59:57;;;;;;;1999.90;999.90;;;20.60;99.90;;;;;;5026031;28;20411;-72
2023/03/21 11:02:37;;;;;;;1999.90;999.90;;;20.60;99.90;;;;;;5026717;28;22883;-71
2023/03/21 11:05:26;;;;;;;1999.90;999.90;;;20.60;99.90;;;;;;5023792;28;20511;-71
2023/03/21 11:08:05;;;;;;;1999.90;999.90;;;20.50;99.90;;;;;;5030940;28;20080;-70
2023/03/21 11:10:36;;;;;;;1999.90;999.90;;;20.50;99.90;;;;;;5024927;28;20032;-70
2023/03/21 11:13:08;;;;;;;1999.90;999.90;;;20.40;99.90;;;;;;5030300;28;20511;-69
2023/03/21 11:15:38;;;;;;;1999.90;999.90;;;20.40;99.90;;;;;;5030183;28;20167;-69
2023/03/21 11:18:20;;;;;;;1999.90;999.90;;;20.40;99.90;;;;;;5032441;28;20032;-69
2023/03/21 11:21:09;;;;;;;1999.90;999.90;;;20.30;99.90;;;;;;5027919;28;20035;-69
2023/03/21 11:23:45;;;;;;;1999.90;999.90;;;20.30;99.90;;;;;;5030451;28;20064;-69
2023/03/21 11:26:26;;;;;;;1999.90;999.90;;;20.30;99.90;;;;;;5032132;28;20049;-70
2023/03/21 11:28:54;;;;;;;1999.90;999.90;;;20.20;99.90;;;;;;5028045;28;20053;-70
2023/03/21 11:31:23;;;;;;;1999.90;999.90;;;20.20;99.90;;;;;;5032022;28;20029;-70
2023/03/21 11:33:58;;;;;;;1999.90;999.90;;;20.20;99.90;;;;;;5037775;28;20040;-72
2023/03/21 11:36:37;;;;;;;1999.90;999.90;;;20.30;99.90;;;;;;5040183;28;20038;-69
2023/03/21 11:39:29;;;;;;;1999.90;999.90;;;20.20;99.90;;;;;;5032135;28;20052;-70
2023/03/21 11:41:57;;;;;;;1999.90;999.90;;;20.20;99.90;;;;;;5025954;28;20025;-69
2023/03/21 11:44:34;;;;;;;1999.90;999.90;;;20.20;99.90;;;;;;5016455;28;20749;-69
2023/03/21 11:47:01;;;;;;;1999.90;999.90;;;20.20;99.90;;;;;;5017228;28;20167;-70
2023/03/21 11:49:30;;;;;;;1999.90;999.90;;;20.20;99.90;;;;;;5016793;28;20079;-72
2023/03/21 11:52:12;;;;;;;1999.90;999.90;;;20.20;99.90;;;;;;5019487;28;20037;-70
2023/03/21 11:55:06;;;;;;;1999.90;999.90;;;20.20;99.90;;;;;;5031493;28;20384;-69
2023/03/21 11:57:54;;;;;;;1999.90;999.90;;;20.20;99.90;;;;;;5032767;28;20025;-70
2023/03/21 12:00:50;;;;;;;1999.90;999.90;;;20.20;99.90;;;;;;5028240;28;20025;-71
2023/03/21 12:03:20;;;;;;;1999.90;999.90;;;20.10;99.90;;;;;;5023286;28;20379;-70
2023/03/21 12:05:55;;;;;;;1999.90;999.90;;;20.10;99.90;;;;;;5026413;28;20117;-70
2023/03/21 12:08:35;;;;;;;1999.90;999.90;;;20.10;99.90;;;;;;5025033;28;20069;-70
2023/03/21 12:11:27;;;;;;;1999.90;999.90;;;20.10;99.90;;;;;;5034729;28;20029;-69
2023/03/21 12:14:03;;;;;;;1999.90;999.90;;;20.00;99.90;;;;;;5031901;28;20508;-70
2023/03/21 12:16:56;;;;;;;1999.90;999.90;;;20.00;99.90;;;;;;5030810;28;20026;-70
2023/03/21 12:19:41;;;;;;;1999.90;999.90;;;20.00;99.90;;;;;;5030831;28;21712;-71
2023/03/21 12:22:27;;;;;;;1999.90;999.90;;;19.90;99.90;;;;;;5031559;28;20054;-70
2023/03/21 12:24:57;;;;;;;1999.90;999.90;;;19.90;99.90;;;;;;5031045;28;20464;-70
2023/03/21 12:27:55;;;;;;;1999.90;999.90;;;19.90;99.90;;;;;;5030526;28;20051;-71
2023/03/21 12:30:37;;;;;;;1999.90;999.90;;;19.90;99.90;;;;;;5025381;28;20029;-70
2023/03/21 12:33:12;;;;;;;1999.90;999.90;;;19.90;99.90;;;;;;5022210;28;20136;-71
2023/03/21 12:36:07;;;;;;;1999.90;999.90;;;19.80;99.90;;;;;;5026220;28;20041;-72
2023/03/21 12:39:00;;;;;;;1999.90;999.90;;;19.80;99.90;;;;;;5030374;28;20487;-70
2023/03/21 12:41:41;;;;;;;1999.90;999.90;;;19.90;99.90;;;;;;5026433;28;20028;-70
2023/03/21 12:44:20;;;;;;;1999.90;999.90;;;19.80;99.90;;;;;;5025695;28;20109;-70
2023/03/21 12:47:15;;;;;;;1999.90;999.90;;;19.80;99.90;;;;;;5024935;28;20060;-70
2023/03/21 12:50:13;;;;;;;1999.90;999.90;;;19.70;99.90;;;;;;5025538;28;20034;-70
2023/03/21 12:52:44;;;;;;;1999.90;999.90;;;19.70;99.90;;;;;;5023550;28;20041;-70
2023/03/21 12:55:22;;;;;;;1999.90;999.90;;;19.60;99.90;;;;;;5026499;28;20037;-70
2023/03/21 12:57:52;;;;;;;1999.90;999.90;;;19.60;99.90;;;;;;5028746;28;20121;-70
2023/03/21 13:00:37;;;;;;;1999.90;999.90;;;19.50;99.90;;;;;;5026240;28;20033;-69
2023/03/21 13:03:13;;;;;;;1999.90;999.90;;;19.50;99.90;;;;;;5027626;28;20029;-69
2023/03/21 13:05:47;;;;;;;1999.90;999.90;;;19.40;99.90;;;;;;5025142;28;20132;-69
2023/03/21 13:08:24;;;;;;;1999.90;999.90;;;19.30;99.90;;;;;;5029883;28;20033;-70
2023/03/21 13:10:51;;;;;;;1999.90;999.90;;;19.30;99.90;;;;;;5026609;28;20030;-70
2023/03/21 13:13:34;;;;;;;1999.90;999.90;;;19.30;99.90;;;;;;5035815;28;20164;-69
2023/03/21 13:16:26;;;;;;;1999.90;999.90;;;19.20;99.90;;;;;;5035654;28;20056;-70
2023/03/21 13:19:46;;;;;;;1999.90;999.90;;;19.20;99.90;;;;;;5031361;28;20110;-69
2023/03/21 13:22:29;;;;;;;1999.90;999.90;;;19.20;99.90;;;;;;4985283;28;20114;-70
2023/03/21 13:25:07;;;;;;;1999.90;999.90;;;19.20;99.90;;;;;;5026370;28;20045;-70
2023/03/21 13:27:38;;;;;;;1999.90;999.90;;;19.10;99.90;;;;;;5041193;28;20056;-70
2023/03/21 13:30:14;;;;;;;1999.90;999.90;;;19.10;99.90;;;;;;5032355;28;20431;-70
2023/03/21 13:32:48;;;;;;;1999.90;999.90;;;19.00;99.90;;;;;;5036791;28;20025;-69
2023/03/21 13:35:27;;;;;;;1999.90;999.90;;;19.00;99.90;;;;;;5027208;28;20407;-70
2023/03/21 13:38:12;;;;;;;1999.90;999.90;;;19.00;99.90;;;;;;5034046;28;20044;-69
2023/03/21 13:40:56;;;;;;;1999.90;999.90;;;18.90;99.90;;;;;;5033160;28;20379;-70
2023/03/21 13:43:44;;;;;;;1999.90;999.90;;;18.80;99.90;;;;;;5034185;28;20472;-70
2023/03/21 13:46:26;;;;;;;1999.90;999.90;;;18.80;99.90;;;;;;5036701;28;20115;-70
2023/03/21 13:48:56;;;;;;;1999.90;999.90;;;18.80;99.90;;;;;;5036334;28;20033;-70
2023/03/21 13:51:29;;;;;;;1999.90;999.90;;;18.70;99.90;;;;;;5032932;28;20033;-70
2023/03/21 13:54:07;;;;;;;1999.90;999.90;;;18.70;99.90;;;;;;5037965;28;20026;-70
2023/03/21 13:56:47;;;;;;;1999.90;999.90;;;18.70;99.90;;;;;;5038167;28;20029;-69
2023/03/21 13:59:43;;;;;;;1999.90;999.90;;;18.60;99.90;;;;;;5035211;28;20029;-70
2023/03/21 14:02:19;;;;;;;1999.90;999.90;;;18.60;99.90;;;;;;5039934;28;20056;-69
2023/03/21 14:04:52;;;;;;;1999.90;999.90;;;18.60;99.90;;;;;;5036543;28;20033;-70
2023/03/21 14:07:29;;;;;;;1999.90;999.90;;;18.50;99.90;;;;;;5036977;28;20037;-70
2023/03/21 14:10:06;;;;;;;1999.90;999.90;;;18.50;99.90;;;;;;5036481;28;20167;-70
2023/03/21 14:12:40;;;;;;;1999.90;999.90;;;18.60;99.90;;;;;;5036982;28;20025;-70
2023/03/21 14:15:27;;;;;;;1999.90;999.90;;;18.60;99.90;;;;;;5031083;28;20022;-71
2023/03/21 14:18:04;;;;;;;1999.90;999.90;;;18.60;99.90;;;;;;5033560;28;20063;-70
2023/03/21 14:20:38;;;;;;;1999.90;999.90;;;18.60;99.90;;;;;;5034137;28;20039;-70
2023/03/21 14:23:07;;;;;;;1999.90;999.90;;;18.50;99.90;;;;;;5034187;28;20029;-70
2023/03/21 14:25:38;;;;;;;1999.90;999.90;;;18.60;99.90;;;;;;5030183;28;20064;-69
2023/03/21 14:28:13;;;;;;;1999.90;999.90;;;18.60;99.90;;;;;;5030200;28;20104;-70
2023/03/21 14:30:41;;;;;;;1999.90;999.90;;;18.60;99.90;;;;;;5030451;28;20424;-69
2023/03/21 14:33:45;;;;;;;1999.90;999.90;;;18.70;99.90;;;;;;5037361;28;20079;-70
2023/03/21 14:36:23;;;;;;;1999.90;999.90;;;18.70;99.90;;;;;;5037977;28;20064;-69
2023/03/21 14:39:15;;;;;;;1999.90;999.90;;;18.70;99.90;;;;;;5037979;28;20037;-70
2023/03/21 14:42:12;;;;;;;1999.90;999.90;;;18.70;99.90;;;;;;5032020;28;20032;-70
2023/03/21 14:44:42;;;;;;;1999.90;999.90;;;18.70;99.90;;;;;;5026503;28;20506;-69
2023/03/21 14:47:19;;;;;;;1999.90;999.90;;;18.80;99.90;;;;;;5038691;28;20492;-70
2023/03/21 14:49:47;;;;;;;1999.90;999.90;;;18.80;99.90;;;;;;5026960;28;20071;-70
2023/03/21 14:52:25;;;;;;;1999.90;999.90;;;18.80;99.90;;;;;;5032051;28;20025;-69
2023/03/21 14:54:54;;;;;;;1999.90;999.90;;;18.80;99.90;;;;;;5029758;28;20388;-69
2023/03/21 14:57:27;;;;;;;1999.90;999.90;;;18.90;99.90;;;;;;5028093;28;20563;-71
2023/03/21 15:00:00;;;;;;;1999.90;999.90;;;19.00;99.90;;;;;;5024336;28;20025;-71
2023/03/21 15:02:38;;;;;;;1999.90;999.90;;;18.90;99.90;;;;;;5036354;28;20049;-71
2023/03/21 15:05:13;;;;;;;1999.90;999.90;;;19.00;99.90;;;;;;5033366;28;20034;-68
2023/03/21 15:07:40;;;;;;;;;;;19.00;99.90;;;;;;5039125;28;20117;-69
2023/03/21 15:10:20;;;;;;;1999.90;999.90;;;19.00;99.90;;;;;;5033688;28;19908;-69
2023/03/21 15:12:53;;;;;;;1999.90;999.90;;;19.00;99.90;;;;;;5038758;28;20029;-69
2023/03/21 15:15:21;;;;;;;1999.90;999.90;;;19.00;99.90;;;;;;5034457;28;20021;-69
2023/03/21 15:17:51;;;;;;;1999.90;999.90;;;19.00;99.90;;;;;;5034745;28;20087;-69
2023/03/21 15:20:24;;;;;;;1999.90;999.90;;;19.00;99.90;;;;;;5029586;28;20033;-69
2023/03/21 15:22:59;;;;;;;1999.90;999.90;;;19.00;99.90;;;;;;5041759;28;20025;-69
2023/03/21 15:25:29;;;;;;;1999.90;999.90;;;18.90;99.90;;;;;;5033410;28;20488;-69
2023/03/21 15:27:57;;;;;;;1999.90;999.90;;;19.00;99.90;;;;;;5036878;28;20047;-69
2023/03/21 15:30:27;;;;;;;1999.90;999.90;;;19.00;99.90;;;;;;5029231;28;20037;-69
2023/03/21 15:32:56;;;;;;;1999.90;999.90;;;19.00;99.90;;;;;;5036620;28;20495;-69
2023/03/21 15:35:39;;;;;;;1999.90;999.90;;;19.00;99.90;;;;;;5034580;28;20021;-69
2023/03/21 15:38:06;;;;;;;1999.90;999.90;;;19.00;99.90;;;;;;5035689;28;20045;-69
2023/03/21 15:40:34;;;;;;;1999.90;999.90;;;19.00;99.90;;;;;;5031100;28;20075;-69
2023/03/21 15:43:16;;;;;;;1999.90;999.90;;;19.00;99.90;;;;;;5040213;28;20041;-69
2023/03/21 15:45:52;;;;;;;1999.90;999.90;;;19.00;99.90;;;;;;5032345;28;20052;-70
2023/03/21 15:48:33;;;;;;;1999.90;999.90;;;18.90;99.90;;;;;;5031172;28;20456;-70
2023/03/21 15:51:06;;;;;;;1999.90;999.90;;;19.00;99.90;;;;;;5032820;28;20057;-68
2023/03/21 15:53:36;;;;;;;1999.90;999.90;;;19.00;99.90;;;;;;5032690;28;20519;-69
2023/03/21 15:56:05;;;;;;;1999.90;999.90;;;18.90;99.90;;;;;;5030102;28;20036;-70
2023/03/21 15:58:47;;;;;;;1999.90;999.90;;;18.90;99.90;;;;;;5029992;28;20027;-70
2023/03/21 16:01:20;;;;;;;1999.90;999.90;;;19.00;99.90;;;;;;5025857;28;20070;-69
2023/03/21 16:04:05;;;;;;;1999.90;999.90;;;19.00;99.90;;;;;;5029960;28;20033;-70
2023/03/21 16:06:35;;;;;;;1999.90;999.90;;;19.00;99.90;;;;;;5031535;28;20045;-70
2023/03/21 16:09:08;;;;;;;1999.90;999.90;;;18.90;99.90;;;;;;5035847;28;20064;-69
2023/03/21 16:11:43;;;;;;;1999.90;999.90;;;18.90;99.90;;;;;;5027635;28;20108;-69
2023/03/21 16:14:10;;;;;;;1999.90;999.90;;;18.90;99.90;;;;;;5024431;28;20074;-69
2023/03/21 16:16:38;;;;;;;1999.90;999.90;;;19.00;99.90;;;;;;5034233;28;20537;-69
2023/03/21 16:19:08;;;;;;;1999.90;999.90;;;19.00;99.90;;;;;;5021854;28;20556;-69
2023/03/21 16:21:38;;;;;;;1999.90;999.90;;;18.90;99.90;;;;;;5030743;28;20044;-69
2023/03/21 16:24:06;;;;;;;1999.90;999.90;;;19.00;99.90;;;;;;5025919;28;20030;-69
2023/03/21 16:26:42;;;;;;;1999.90;999.90;;;18.90;99.90;;;;;;5029559;28;20048;-69
2023/03/21 16:29:12;;;;;;;1999.90;999.90;;;19.00;99.90;;;;;;5026387;28;20385;-69
2023/03/21 16:31:40;;;;;;;1999.90;999.90;;;19.00;99.90;;;;;;5024433;28;20104;-69
2023/03/21 16:34:07;;;;;;;1999.90;999.90;;;19.00;99.90;;;;;;5030080;28;20033;-69
2023/03/21 16:36:40;;;;;;;1999.90;999.90;;;19.00;99.90;;;;;;5034313;28;20107;-69
2023/03/21 16:39:23;;;;;;;1999.90;999.90;;;19.00;99.90;;;;;;5028865;28;20026;-69
2023/03/21 16:41:51;;;;;;;1999.90;999.90;;;19.00;99.90;;;;;;5031867;28;20040;-70
2023/03/21 16:44:19;;;;;;;1999.90;999.90;;;18.90;99.90;;;;;;5030462;28;20583;-71
2023/03/21 16:46:47;;;;;;;1999.90;999.90;;;18.90;99.90;;;;;;5028771;28;20056;-70
2023/03/21 16:49:24;;;;;;;1999.90;999.90;;;19.00;99.90;;;;;;5027532;28;20026;-69
2023/03/21 16:51:52;;;;;;;1999.90;999.90;;;19.00;99.90;;;;;;5039037;28;20033;-69
2023/03/21 16:54:20;;;;;;;1999.90;999.90;;;19.00;99.90;;;;;;5034523;28;20029;-69
2023/03/21 16:56:53;;;;;;;1999.90;999.90;;;19.00;99.90;;;;;;5027303;28;20058;-70
2023/03/21 16:59:21;;;;;;;1999.90;999.90;;;19.00;99.90;;;;;;5045976;28;20496;-69
2023/03/21 17:01:49;;;;;;;1999.90;999.90;;;19.00;99.90;;;;;;5035982;28;20091;-70
2023/03/21 17:04:17;;;;;;;1999.90;999.90;;;19.00;99.90;;;;;;5026859;28;20036;-70
2023/03/21 17:06:50;;;;;;;1999.90;999.90;;;19.00;99.90;;;;;;5036714;28;20504;-70
2023/03/21 17:09:20;;;;;;;1999.90;999.90;;;19.00;99.90;;;;;;5034131;28;20091;-70
2023/03/21 17:11:48;;;;;;;1999.90;999.90;;;19.00;99.90;;;;;;5039520;28;20048;-70
2023/03/21 17:14:16;;;;;;;1999.90;999.90;;;19.00;99.90;;;;;;5038185;28;20029;-70
2023/03/21 17:16:45;;;;;;;1999.90;999.90;;;19.00;99.90;;;;;;5041119;28;20033;-70
2023/03/21 17:19:25;;;;;;;1999.90;999.90;;;18.90;99.90;;;;;;5034739;28;20025;-69
2023/03/21 17:21:52;;;;;;;1999.90;999.90;;;18.90;99.90;;;;;;5041442;28;20029;-69
2023/03/21 17:24:20;;;;;;;1999.90;999.90;;;18.90;99.90;;;;;;5030021;28;20037;-69
2023/03/21 17:26:47;;;;;;;1999.90;999.90;;;18.90;99.90;;;;;;5036118;28;20068;-69
2023/03/21 17:29:15;;;;;;;1999.90;999.90;;;18.90;99.90;;;;;;5033750;28;20036;-70
2023/03/21 17:31:46;;;;;;;1999.90;999.90;;;18.80;99.90;;;;;;5036560;28;20040;-70
2023/03/21 17:34:14;;;;;;;1999.90;999.90;;;18.80;99.90;;;;;;5039888;28;20029;-70
2023/03/21 17:36:43;;;;;;;1999.90;999.90;;;18.80;99.90;;;;;;5032582;28;20108;-70
2023/03/21 17:39:29;;;;;;;1999.90;999.90;;;18.70;99.90;;;;;;5033821;28;20124;-69
2023/03/21 17:41:56;;;;;;;1999.90;999.90;;;18.60;99.90;;;;;;5034319;28;20365;-69
2023/03/21 17:44:23;;;;;;;1999.90;999.90;;;18.60;99.90;;;;;;5033600;28;20430;-70
2023/03/21 17:46:51;;;;;;;1999.90;999.90;;;18.60;99.90;;;;;;5037106;28;20045;-69
2023/03/21 17:49:19;;;;;;;1999.90;999.90;;;18.60;99.90;;;;;;5031167;28;20038;-70
2023/03/21 17:51:47;;;;;;;1999.90;999.90;;;18.50;99.90;;;;;;5030992;28;20025;-70
2023/03/21 17:54:14;;;;;;;1999.90;999.90;;;18.40;99.90;;;;;;5029270;28;20034;-69
2023/03/21 17:56:42;;;;;;;1999.90;999.90;;;18.40;99.90;;;;;;5032080;28;20545;-69
2023/03/21 17:59:12;;;;;;;1999.90;999.90;;;18.30;99.90;;;;;;5029064;28;20481;-70
2023/03/21 18:01:41;;;;;;;1999.90;999.90;;;18.30;99.90;;;;;;5029374;28;20370;-70
2023/03/21 18:04:09;;;;;;;1999.90;999.90;;;18.20;99.90;;;;;;5029282;28;20303;-70
2023/03/21 18:06:37;;;;;;;1999.90;999.90;;;18.10;99.90;;;;;;5038792;28;20681;-70
2023/03/21 18:09:09;;;;;;;1999.90;999.90;;;18.10;99.90;;;;;;5027280;28;20029;-70
2023/03/21 18:11:38;;;;;;;1999.90;999.90;;;18.00;99.90;;;;;;5033642;28;20072;-70
2023/03/21 18:14:06;;;;;;;1999.90;999.90;;;18.00;99.90;;;;;;5033368;28;20030;-70
2023/03/21 18:16:33;;;;;;;1999.90;999.90;;;18.00;99.90;;;;;;5032723;28;20052;-71
2023/03/21 18:19:00;;;;;;;1999.90;999.90;;;18.00;99.90;;;;;;5024228;28;20026;-71
2023/03/21 18:21:28;;;;;;;1999.90;999.90;;;18.00;99.90;;;;;;5037957;28;20033;-70
2023/03/21 18:23:55;;;;;;;1999.90;999.90;;;18.00;99.90;;;;;;5033480;28;20495;-71
2023/03/21 18:26:23;;;;;;;1999.90;999.90;;;18.00;99.90;;;;;;5035377;28;20366;-69
2023/03/21 18:28:50;;;;;;;1999.90;999.90;;;18.00;99.90;;;;;;5032233;28;20484;-69
2023/03/21 18:31:19;;;;;;;1999.90;999.90;;;18.00;99.90;;;;;;5037317;28;20034;-69
2023/03/21 18:33:49;;;;;;;1999.90;999.90;;;17.90;99.90;;;;;;5035617;28;20051;-70
2023/03/21 18:36:19;;;;;;;1999.90;999.90;;;17.90;99.90;;;;;;5037962;28;20048;-70
2023/03/21 18:38:47;;;;;;;1999.90;999.90;;;17.80;99.90;;;;;;5035574;28;20452;-69
2023/03/21 18:41:17;;;;;;;1999.90;999.90;;;17.80;99.90;;;;;;5036671;28;20373;-70
2023/03/21 18:43:44;;;;;;;1999.90;999.90;;;17.80;99.90;;;;;;5036706;28;20033;-70
2023/03/21 18:46:12;;;;;;;1999.90;999.90;;;17.70;99.90;;;;;;5034363;28;20118;-70
2023/03/21 18:48:41;;;;;;;1999.90;999.90;;;17.70;99.90;;;;;;5029343;28;20029;-70
2023/03/21 18:51:11;;;;;;;1999.90;999.90;;;17.70;99.90;;;;;;5036036;28;20395;-70
2023/03/21 18:53:38;;;;;;;1999.90;999.90;;;17.60;99.90;;;;;;5035017;28;20029;-70
2023/03/21 18:56:06;;;;;;;1999.90;999.90;;;17.60;99.90;;;;;;5036728;28;20038;-70
2023/03/21 18:58:34;;;;;;;1999.90;999.90;;;17.60;99.90;;;;;;5037579;28;20037;-70
2023/03/21 19:01:02;;;;;;;1999.90;999.90;;;17.50;99.90;;;;;;5036617;28;20061;-70
2023/03/21 19:03:30;;;;;;;1999.90;999.90;;;17.50;99.90;;;;;;5036613;28;20056;-70
2023/03/21 19:06:00;;;;;;;1999.90;999.90;;;17.50;99.90;;;;;;5030564;28;20033;-70
2023/03/21 19:08:27;;;;;;;1999.90;999.90;;;17.50;99.90;;;;;;5035426;28;20021;-69
2023/03/21 19:10:54;;;;;;;1999.90;999.90;;;17.50;99.90;;;;;;5035653;28;20044;-69
2023/03/21 19:13:22;;;;;;;1999.90;999.90;;;17.40;99.90;;;;;;5036849;28;20060;-70
2023/03/21 19:15:49;;;;;;;1999.90;999.90;;;17.40;99.90;;;;;;5032927;28;20626;-69
2023/03/21 19:18:17;;;;;;;1999.90;999.90;;;17.40;99.90;;;;;;5035843;28;20064;-70
2023/03/21 19:20:47;;;;;;;1999.90;999.90;;;17.40;99.90;;;;;;5032923;28;20038;-70
2023/03/21 19:23:14;;;;;;;1999.90;999.90;;;17.40;99.90;;;;;;5040402;28;20414;-70
2023/03/21 19:25:42;;;;;;;1999.90;999.90;;;17.50;99.90;;;;;;5033021;28;20467;-70
2023/03/21 19:28:10;;;;;;;1999.90;999.90;;;17.50;99.90;;;;;;5033364;28;20476;-70
2023/03/21 19:30:37;;;;;;;1999.90;999.90;;;17.60;99.90;;;;;;5035479;28;20542;-70
2023/03/21 19:33:05;;;;;;;1999.90;999.90;;;17.60;99.90;;;;;;5035466;28;20029;-69
2023/03/21 19:35:35;;;;;;;1999.90;999.90;;;17.70;99.90;;;;;;5029498;28;20424;-70
2023/03/21 19:38:03;;;;;;;1999.90;999.90;;;17.70;99.90;;;;;;5032263;28;20429;-69
2023/03/21 19:40:30;;;;;;;1999.90;999.90;;;17.80;99.90;;;;;;5030343;28;20029;-70
2023/03/21 19:42:58;;;;;;;1999.90;999.90;;;17.80;99.90;;;;;;5033160;28;20079;-70
2023/03/21 19:45:26;;;;;;;1999.90;999.90;;;17.80;99.90;;;;;;5027859;28;20144;-70
2023/03/21 19:47:53;;;;;;;1999.90;999.90;;;17.80;99.90;;;;;;5030924;28;20459;-69
2023/03/21 19:50:21;;;;;;;1999.90;999.90;;;17.90;99.90;;;;;;5030405;28;20025;-70
2023/03/21 19:52:48;;;;;;;1999.90;999.90;;;17.90;99.90;;;;;;5029525;28;20060;-70
2023/03/21 19:55:15;;;;;;;1999.90;999.90;;;17.90;99.90;;;;;;5032869;28;20060;-70
2023/03/21 19:57:45;;;;;;;1999.90;999.90;;;17.80;99.90;;;;;;5028585;28;20069;-70
2023/03/21 20:00:13;;;;;;;1999.90;999.90;;;17.80;99.90;;;;;;5026136;28;20025;-70
2023/03/21 20:02:43;;;;;;;1999.90;999.90;;;17.70;99.90;;;;;;5029227;28;20064;-70
2023/03/21 20:05:12;;;;;;;1999.90;999.90;;;17.60;99.90;;;;;;5035333;28;20052;-70
2023/03/21 20:07:40;;;;;;;1999.90;999.90;;;17.60;99.90;;;;;;5032306;28;20065;-70
2023/03/21 20:10:09;;;;;;;1999.90;999.90;;;17.50;99.90;;;;;;5029982;28;20110;-71
2023/03/21 20:12:37;;;;;;;1999.90;999.90;;;17.50;99.90;;;;;;5033335;28;20068;-71
2023/03/21 20:15:05;;;;;;;1999.90;999.90;;;17.40;99.90;;;;;;5030051;28;20463;-71
2023/03/21 20:17:33;;;;;;;1999.90;999.90;;;17.40;99.90;;;;;;5025821;28;20437;-69
2023/03/21 20:20:09;;;;;;;1999.90;999.90;;;17.40;99.90;;;;;;5035734;28;20025;-69
2023/03/21 20:22:36;;;;;;;1999.90;999.90;;;17.50;99.90;;;;;;5031348;28;20037;-70
2023/03/21 20:25:07;;;;;;;1999.90;999.90;;;17.50;99.90;;;;;;5029857;28;20399;-70
2023/03/21 20:27:39;;;;;;;1999.90;999.90;;;17.40;99.90;;;;;;5032511;28;20036;-70
2023/03/21 20:30:13;;;;;;;1999.90;999.90;;;17.50;99.90;;;;;;5031742;28;20119;-70
2023/03/21 20:32:43;;;;;;;1999.90;999.90;;;17.50;99.90;;;;;;5035699;28;20034;-70
2023/03/21 20:35:13;;;;;;;1999.90;999.90;;;17.60;99.90;;;;;;5032386;28;20418;-70
2023/03/21 20:37:45;;;;;;;1999.90;999.90;;;17.60;99.90;;;;;;5036011;28;20155;-70
2023/03/21 20:40:14;;;;;;;1999.90;999.90;;;17.70;99.90;;;;;;5031083;28;20026;-69
2023/03/21 20:42:42;;;;;;;1999.90;999.90;;;17.70;99.90;;;;;;5030202;28;20041;-70
2023/03/21 20:45:11;;;;;;;1999.90;999.90;;;17.80;99.90;;;;;;5026691;28;20077;-69
2023/03/21 20:47:40;;;;;;;1999.90;999.90;;;17.80;99.90;;;;;;5034751;28;20380;-69
2023/03/21 20:50:09;;;;;;;1999.90;999.90;;;17.90;99.90;;;;;;5024537;28;20110;-69
2023/03/21 20:52:37;;;;;;;1999.90;999.90;;;18.10;99.90;;;;;;5030010;28;20052;-69
2023/03/21 20:55:10;;;;;;;1999.90;999.90;;;18.20;99.90;;;;;;5028117;28;20484;-71
2023/03/21 20:57:37;;;;;;;1999.90;999.90;;;18.30;99.90;;;;;;5040000;28;20052;-69
2023/03/21 21:00:13;;;;;;;1999.90;999.90;;;18.50;99.90;;;;;;5033001;28;20120;-69
2023/03/21 21:02:46;;;;;;;1999.90;999.90;;;18.60;99.90;;;;;;5032470;28;20045;-69
2023/03/21 21:05:14;;;;;;;1999.90;999.90;;;18.70;99.90;;;;;;5029252;28;20073;-69
2023/03/21 21:07:43;;;;;;;1999.90;999.90;;;18.80;99.90;;;;;;5028618;28;20392;-70
2023/03/21 21:10:12;;;;;;;1999.90;999.90;;;18.90;99.90;;;;;;5033553;28;20074;-69
2023/03/21 21:12:43;;;;;;;1999.90;999.90;;;18.90;99.90;;;;;;5032453;28;20483;-70
2023/03/21 21:15:13;;;;;;;1999.90;999.90;;;19.00;99.90;;;;;;5031222;28;20224;-70